DW8522 Weather Reports


time (UTC)temp
F
wind
direction
speed
knots
gust
knots
rain 1hr
in
rain 24hr
in
rain mn
in
humidity
%
barometer
mb
20240614120018 58 82 0.0 0.9 0.09 2.72 0.00 96 993.3
20240614114516 58 82 0.0 2.6 0.10 2.72 2.72 96 993.3
20240614113017 59 299 0.9 4.3 0.10 2.72 2.72 96 993.2
20240614111523 59 244 1.7 5.2 0.04 2.66 2.65 96 993.1
20240614110015 60 67 0.9 3.5 0.00 2.62 2.61 97 992.9
20240614104523 60 68 0.9 4.3 0.00 2.63 2.61 97 992.9
20240614103016 59 65 0.9 3.5 0.00 2.63 2.61 97 992.9
20240614101527 59 70 0.9 2.6 0.00 2.63 2.61 97 993.1
20240614100024 59 72 0.0 0.9 0.00 2.63 2.61 97 993.1
20240614094511 58 68 0.0 0.9 0.00 2.63 2.61 96 993.0
20240614093010 58 68 0.0 2.6 0.00 2.63 2.61 96 993.1
20240614091509 58 69 0.0 1.7 0.01 2.63 2.61 96 993.3
20240614090005 58 64 0.0 1.7 0.02 2.63 2.61 96 993.3
20240614084508 59 83 1.7 4.3 0.09 2.63 2.61 97 993.3
20240614083004 58 58 1.7 3.5 0.39 2.63 2.61 96 993.3
20240614081502 59 73 1.7 9.6 0.65 2.62 2.61 97 993.6
20240614080002 58 98 0.9 3.5 1.04 2.61 2.59 97 993.7
20240614074601 56 96 0.0 0.9 1.02 2.54 2.52 96 993.6
20240614073057 58 79 0.0 6.1 0.73 2.24 2.23 97 993.7
20240614071558 58 101 0.9 3.5 0.46 1.98 1.96 97 994.1
20240614070057 57 104 0.9 3.5 0.06 1.57 1.55 97 993.8
20240614064556 57 116 1.7 4.3 0.00 1.51 1.50 96 993.5
20240614063102 57 105 0.9 3.5 0.00 1.51 1.50 96 993.8
20240614061552 58 94 0.0 2.6 0.00 1.51 1.50 96 993.6
20240614060051 58 123 0.9 2.6 0.00 1.51 1.50 96 993.9
20240614054552 58 105 0.9 2.6 0.00 1.51 1.50 96 993.8
20240614053050 58 100 0.0 3.5 0.00 1.51 1.50 96 993.9
20240614051549 58 102 0.9 1.7 0.00 1.51 1.50 96 994.0
20240614050049 58 87 0.9 3.5 0.00 1.51 1.50 96 993.9
20240614044548 58 109 0.9 4.3 0.00 1.51 1.50 96 994.1
20240614043047 58 91 0.9 2.6 0.01 1.51 1.50 96 994.1
20240614041548 58 112 0.9 5.2 0.03 1.51 1.50 96 994.2
20240614040100 58 85 0.0 3.5 0.07 1.51 1.50 96 994.0
20240614034552 57 91 0.9 6.1 0.15 1.51 1.50 96 993.7
20240614033047 58 112 2.6 8.7 0.25 1.50 1.49 96 994.1
20240614031543 58 64 3.5 8.7 0.57 1.48 1.46 96 994.4
20240614030038 58 37 4.3 10.4 0.56 1.44 1.43 95 994.9
20240614024537 58 77 2.6 7.0 0.49 1.36 1.35 95 994.5
20240614023042 59 347 6.1 19.1 0.38 1.25 1.24 93 995.1
20240614021531 63 53 7.0 15.6 0.03 0.89 0.87 95 994.4
20240614020026 63 74 8.7 17.4 0.07 0.87 0.86 95 994.8
20240614014525 63 73 8.7 15.6 0.08 0.87 0.86 96 994.8
20240614013023 63 47 10.4 18.2 0.08 0.87 0.86 96 994.9
20240614011520 63 58 6.1 13.9 0.07 0.86 0.84 95 995.4
20240614010017 63 28 7.8 17.4 0.01 0.80 0.78 94 995.9
20240614004513 63 65 10.4 16.5 0.06 0.80 0.78 95 996.2
20240614003011 63 46 4.3 16.5 0.08 0.80 0.78 95 996.7
20240614001516 62 78 7.0 18.2 0.09 0.79 0.77 95 997.0
20240614000010 62 70 7.8 16.5 0.11 0.78 0.76 95 997.2
20240613234505 62 60 5.2 15.6 0.06 0.72 0.71 96 997.9
20240613233002 62 73 6.1 16.5 0.05 0.72 0.70 95 998.5
20240613231602 62 108 8.7 20.0 0.03 0.70 0.69 93 998.8
20240613230057 63 3 8.7 15.6 0.00 0.67 0.65 92 999.2
20240613224554 63 143 9.6 16.5 0.00 0.67 0.65 92 999.5
20240613223055 63 68 7.8 14.8 0.00 0.67 0.65 92 999.8
20240613221554 63 51 7.8 17.4 0.06 0.67 0.65 93 999.8
20240613220052 62 80 7.0 16.5 0.14 0.67 0.65 93 999.7
20240613214548 62 117 10.4 20.9 0.15 0.67 0.65 94 1000.1
20240613213044 61 46 7.8 16.5 0.16 0.67 0.65 94 1000.0
20240613211541 62 79 6.1 12.2 0.10 0.61 0.60 94 1000.5
20240613210039 62 82 7.0 14.8 0.02 0.53 0.51 93 1000.8
20240613204536 62 82 7.0 12.2 0.01 0.52 0.50 93 1001.1
20240613203037 62 63 7.0 13.9 0.00 0.51 0.50 93 1001.5
20240613201535 62 58 3.5 17.4 0.02 0.51 0.50 93 1001.8
20240613200032 62 65 7.0 17.4 0.02 0.51 0.50 92 1001.7
20240613194533 62 8 7.8 18.2 0.02 0.51 0.50 93 1001.6
20240613193028 62 71 6.1 13.9 0.03 0.51 0.50 94 1001.5
20240613191523 61 49 4.3 9.6 0.06 0.50 0.48 94 1001.8
20240613190022 60 77 2.6 7.8 0.06 0.49 0.47 95 1002.1
20240613184519 60 16 2.6 5.2 0.06 0.49 0.47 95 1002.3
20240613183019 60 44 4.3 12.2 0.05 0.48 0.46 93 1002.6
20240613181520 62 89 6.1 15.6 0.00 0.43 0.42 93 1002.5
20240613180016 62 63 3.5 7.8 0.00 0.43 0.42 93 1002.5
20240613174521 62 89 2.6 7.8 0.00 0.43 0.42 93 1002.9
20240613173020 61 77 4.3 11.3 0.00 0.43 0.42 93 1003.1
20240613171510 61 83 3.5 8.7 0.00 0.43 0.42 92 1003.2
20240613170012 61 66 4.3 7.8 0.00 0.43 0.42 92 1003.3
20240613164515 60 12 6.1 13.0 0.01 0.43 0.42 92 1003.5
20240613163012 61 86 6.1 13.9 0.03 0.43 0.42 95 1003.5
20240613161509 61 128 4.3 11.3 0.07 0.43 0.42 96 1003.4
20240613160003 61 58 3.5 7.0 0.16 0.43 0.42 96 1003.6
20240613154559 60 51 3.5 8.7 0.17 0.43 0.41 96 1003.9
20240613153114 60 76 3.5 7.8 0.18 0.40 0.39 96 1004.2
20240613151556 60 62 2.6 14.8 0.17 0.36 0.35 95 1004.5
20240613150054 60 58 3.5 9.6 0.10 0.28 0.26 96 1004.7
20240613144558 60 101 3.5 12.2 0.12 0.25 0.24 95 1004.7
20240613143054 60 109 6.1 15.6 0.11 0.21 0.20 96 1005.0
20240613141546 60 114 7.0 11.3 0.13 0.19 0.17 96 1005.1
20240613140044 60 78 5.2 8.7 0.14 0.17 0.16 96 1005.4
20240613134556 60 87 2.6 7.0 0.11 0.13 0.12 95 1005.6
20240613133038 60 113 1.7 9.6 0.08 0.10 0.09 94 1005.7
20240613131534 60 69 4.3 13.0 0.04 0.06 0.05 93 1006.0
20240613130032 60 130 3.5 8.7 0.02 0.03 0.02 92 1006.1
20240613124528 60 77 3.5 8.7 0.02 0.02 0.01 92 1006.3
20240613123026 60 60 2.6 7.0 0.02 0.02 0.01 92 1006.5
20240613121523 60 64 1.7 7.8 0.02 0.02 0.01 91 1006.9